sensor_id;sensor_type;location;lat;lon;timestamp;temperature;humidity
57576;DHT22;43412;-33.800;150.804;2023-04-16T00:01:43;21.40;99.90
57576;DHT22;43412;-33.800;150.804;2023-04-16T00:04:11;21.50;99.90
57576;DHT22;43412;-33.800;150.804;2023-04-16T00:06:38;21.60;99.90
57576;DHT22;43412;-33.800;150.804;2023-04-16T00:09:05;21.70;99.90
57576;DHT22;43412;-33.800;150.804;2023-04-16T00:11:33;21.90;99.90
57576;DHT22;43412;-33.800;150.804;2023-04-16T00:14:00;22.00;99.90
57576;DHT22;43412;-33.800;150.804;2023-04-16T00:16:27;22.20;99.90
57576;DHT22;43412;-33.800;150.804;2023-04-16T00:18:55;22.60;99.90
57576;DHT22;43412;-33.800;150.804;2023-04-16T00:21:22;23.80;99.90
57576;DHT22;43412;-33.800;150.804;2023-04-16T00:23:50;25.10;99.90
57576;DHT22;43412;-33.800;150.804;2023-04-16T00:26:17;26.40;98.50
57576;DHT22;43412;-33.800;150.804;2023-04-16T00:28:44;26.90;96.10
57576;DHT22;43412;-33.800;150.804;2023-04-16T00:31:12;26.40;95.60
57576;DHT22;43412;-33.800;150.804;2023-04-16T00:33:39;26.30;96.70
57576;DHT22;43412;-33.800;150.804;2023-04-16T00:36:06;26.00;96.10
57576;DHT22;43412;-33.800;150.804;2023-04-16T00:38:34;25.60;96.70
57576;DHT22;43412;-33.800;150.804;2023-04-16T00:41:01;25.30;97.00
57576;DHT22;43412;-33.800;150.804;2023-04-16T00:43:28;25.10;97.10
57576;DHT22;43412;-33.800;150.804;2023-04-16T00:45:57;25.00;97.80
57576;DHT22;43412;-33.800;150.804;2023-04-16T00:48:25;24.80;97.50
57576;DHT22;43412;-33.800;150.804;2023-04-16T00:50:53;24.50;98.30
57576;DHT22;43412;-33.800;150.804;2023-04-16T00:53:21;24.20;98.00
57576;DHT22;43412;-33.800;150.804;2023-04-16T00:55:49;24.00;98.70
57576;DHT22;43412;-33.800;150.804;2023-04-16T00:58:16;23.90;98.40
57576;DHT22;43412;-33.800;150.804;2023-04-16T01:00:44;23.80;99.50
57576;DHT22;43412;-33.800;150.804;2023-04-16T01:03:11;23.80;99.40
57576;DHT22;43412;-33.800;150.804;2023-04-16T01:05:39;23.80;99.40
57576;DHT22;43412;-33.800;150.804;2023-04-16T01:08:11;23.90;99.30
57576;DHT22;43412;-33.800;150.804;2023-04-16T01:10:40;24.00;99.20
57576;DHT22;43412;-33.800;150.804;2023-04-16T01:13:08;24.10;98.90
57576;DHT22;43412;-33.800;150.804;2023-04-16T01:15:35;24.20;98.90
57576;DHT22;43412;-33.800;150.804;2023-04-16T01:18:11;24.40;98.80
57576;DHT22;43412;-33.800;150.804;2023-04-16T01:20:39;24.60;98.70
57576;DHT22;43412;-33.800;150.804;2023-04-16T01:23:06;24.90;98.70
57576;DHT22;43412;-33.800;150.804;2023-04-16T01:25:34;25.00;97.70
57576;DHT22;43412;-33.800;150.804;2023-04-16T01:28:01;25.20;98.00
57576;DHT22;43412;-33.800;150.804;2023-04-16T01:30:28;25.40;98.00
57576;DHT22;43412;-33.800;150.804;2023-04-16T01:32:56;25.30;98.20
57576;DHT22;43412;-33.800;150.804;2023-04-16T01:35:25;25.30;98.40
57576;DHT22;43412;-33.800;150.804;2023-04-16T01:37:52;25.40;98.40
57576;DHT22;43412;-33.800;150.804;2023-04-16T01:40:20;25.40;98.50
57576;DHT22;43412;-33.800;150.804;2023-04-16T01:42:47;25.50;98.00
57576;DHT22;43412;-33.800;150.804;2023-04-16T01:45:14;25.50;97.80
57576;DHT22;43412;-33.800;150.804;2023-04-16T01:47:42;25.60;97.90
57576;DHT22;43412;-33.800;150.804;2023-04-16T01:50:09;25.70;98.00
57576;DHT22;43412;-33.800;150.804;2023-04-16T01:52:37;25.70;97.70
57576;DHT22;43412;-33.800;150.804;2023-04-16T01:55:04;25.80;97.50
57576;DHT22;43412;-33.800;150.804;2023-04-16T01:57:32;25.70;97.20
57576;DHT22;43412;-33.800;150.804;2023-04-16T01:59:59;25.90;97.20
57576;DHT22;43412;-33.800;150.804;2023-04-16T02:02:28;26.10;97.00
57576;DHT22;43412;-33.800;150.804;2023-04-16T02:04:55;26.20;96.50
57576;DHT22;43412;-33.800;150.804;2023-04-16T02:07:24;26.10;96.60
57576;DHT22;43412;-33.800;150.804;2023-04-16T02:09:53;26.20;97.00
57576;DHT22;43412;-33.800;150.804;2023-04-16T02:12:20;26.20;96.80
57576;DHT22;43412;-33.800;150.804;2023-04-16T02:14:47;26.40;97.20
57576;DHT22;43412;-33.800;150.804;2023-04-16T02:17:15;26.90;96.90
57576;DHT22;43412;-33.800;150.804;2023-04-16T02:19:42;27.20;96.50
57576;DHT22;43412;-33.800;150.804;2023-04-16T02:22:09;27.30;96.40
57576;DHT22;43412;-33.800;150.804;2023-04-16T02:24:37;27.20;96.20
57576;DHT22;43412;-33.800;150.804;2023-04-16T02:27:04;27.10;96.00
57576;DHT22;43412;-33.800;150.804;2023-04-16T02:29:31;26.90;96.30
57576;DHT22;43412;-33.800;150.804;2023-04-16T02:31:59;26.70;96.00
57576;DHT22;43412;-33.800;150.804;2023-04-16T02:34:26;26.50;96.30
57576;DHT22;43412;-33.800;150.804;2023-04-16T02:36:53;26.50;96.60
57576;DHT22;43412;-33.800;150.804;2023-04-16T02:39:21;26.40;96.10
57576;DHT22;43412;-33.800;150.804;2023-04-16T02:41:48;26.30;97.20
57576;DHT22;43412;-33.800;150.804;2023-04-16T02:44:15;26.20;97.50
57576;DHT22;43412;-33.800;150.804;2023-04-16T02:46:42;26.00;97.60
57576;DHT22;43412;-33.800;150.804;2023-04-16T02:49:10;25.90;97.50
57576;DHT22;43412;-33.800;150.804;2023-04-16T02:51:37;25.80;96.80
57576;DHT22;43412;-33.800;150.804;2023-04-16T02:54:04;25.70;95.00
57576;DHT22;43412;-33.800;150.804;2023-04-16T02:56:32;25.70;94.50
57576;DHT22;43412;-33.800;150.804;2023-04-16T02:58:59;25.80;93.90
57576;DHT22;43412;-33.800;150.804;2023-04-16T03:01:26;25.80;93.20
57576;DHT22;43412;-33.800;150.804;2023-04-16T03:03:54;25.70;93.10
57576;DHT22;43412;-33.800;150.804;2023-04-16T03:06:22;25.70;93.20
57576;DHT22;43412;-33.800;150.804;2023-04-16T03:08:49;26.00;92.70
57576;DHT22;43412;-33.800;150.804;2023-04-16T03:11:16;26.40;92.60
57576;DHT22;43412;-33.800;150.804;2023-04-16T03:13:45;26.80;91.70
57576;DHT22;43412;-33.800;150.804;2023-04-16T03:16:12;27.10;92.20
57576;DHT22;43412;-33.800;150.804;2023-04-16T03:18:39;27.40;91.50
57576;DHT22;43412;-33.800;150.804;2023-04-16T03:21:07;27.20;92.00
57576;DHT22;43412;-33.800;150.804;2023-04-16T03:23:34;26.80;92.00
57576;DHT22;43412;-33.800;150.804;2023-04-16T03:26:02;26.40;92.20
57576;DHT22;43412;-33.800;150.804;2023-04-16T03:28:29;26.70;92.50
57576;DHT22;43412;-33.800;150.804;2023-04-16T03:30:56;27.10;92.20
57576;DHT22;43412;-33.800;150.804;2023-04-16T03:33:24;27.40;92.10
57576;DHT22;43412;-33.800;150.804;2023-04-16T03:35:55;27.50;91.70
57576;DHT22;43412;-33.800;150.804;2023-04-16T03:38:24;27.70;91.70
57576;DHT22;43412;-33.800;150.804;2023-04-16T03:40:52;27.80;91.80
57576;DHT22;43412;-33.800;150.804;2023-04-16T03:43:19;27.80;91.70
57576;DHT22;43412;-33.800;150.804;2023-04-16T03:45:47;27.90;91.20
57576;DHT22;43412;-33.800;150.804;2023-04-16T03:48:15;27.70;90.60
57576;DHT22;43412;-33.800;150.804;2023-04-16T03:50:46;27.60;91.10
57576;DHT22;43412;-33.800;150.804;2023-04-16T03:53:14;27.50;90.40
57576;DHT22;43412;-33.800;150.804;2023-04-16T03:55:41;26.70;90.60
57576;DHT22;43412;-33.800;150.804;2023-04-16T03:58:09;26.30;91.00
57576;DHT22;43412;-33.800;150.804;2023-04-16T04:00:36;26.20;87.30
57576;DHT22;43412;-33.800;150.804;2023-04-16T04:03:03;26.30;87.10
57576;DHT22;43412;-33.800;150.804;2023-04-16T04:05:34;26.50;83.50
57576;DHT22;43412;-33.800;150.804;2023-04-16T04:08:01;26.30;82.80
57576;DHT22;43412;-33.800;150.804;2023-04-16T04:10:31;26.10;81.80
57576;DHT22;43412;-33.800;150.804;2023-04-16T04:12:59;26.20;80.10
57576;DHT22;43412;-33.800;150.804;2023-04-16T04:15:27;26.40;79.70
57576;DHT22;43412;-33.800;150.804;2023-04-16T04:17:54;26.40;79.50
57576;DHT22;43412;-33.800;150.804;2023-04-16T04:20:22;26.40;80.20
57576;DHT22;43412;-33.800;150.804;2023-04-16T04:22:50;26.40;78.40
57576;DHT22;43412;-33.800;150.804;2023-04-16T04:25:17;26.40;78.60
57576;DHT22;43412;-33.800;150.804;2023-04-16T04:27:44;26.50;77.50
57576;DHT22;43412;-33.800;150.804;2023-04-16T04:30:12;26.50;78.80
57576;DHT22;43412;-33.800;150.804;2023-04-16T04:32:40;26.60;80.10
57576;DHT22;43412;-33.800;150.804;2023-04-16T04:35:07;26.70;79.60
57576;DHT22;43412;-33.800;150.804;2023-04-16T04:37:35;26.80;78.10
57576;DHT22;43412;-33.800;150.804;2023-04-16T04:40:03;26.80;79.30
57576;DHT22;43412;-33.800;150.804;2023-04-16T04:42:31;26.80;79.30
57576;DHT22;43412;-33.800;150.804;2023-04-16T04:45:00;26.90;79.20
57576;DHT22;43412;-33.800;150.804;2023-04-16T04:47:27;26.70;77.80
57576;DHT22;43412;-33.800;150.804;2023-04-16T04:49:54;26.70;77.90
57576;DHT22;43412;-33.800;150.804;2023-04-16T04:52:21;26.70;78.80
57576;DHT22;43412;-33.800;150.804;2023-04-16T04:54:49;26.90;79.70
57576;DHT22;43412;-33.800;150.804;2023-04-16T04:57:16;26.90;78.90
57576;DHT22;43412;-33.800;150.804;2023-04-16T04:59:43;26.90;77.20
57576;DHT22;43412;-33.800;150.804;2023-04-16T05:02:11;26.80;77.90
57576;DHT22;43412;-33.800;150.804;2023-04-16T05:04:38;26.80;77.30
57576;DHT22;43412;-33.800;150.804;2023-04-16T05:07:05;26.70;77.10
57576;DHT22;43412;-33.800;150.804;2023-04-16T05:09:33;26.50;77.40
57576;DHT22;43412;-33.800;150.804;2023-04-16T05:12:00;26.30;78.40
57576;DHT22;43412;-33.800;150.804;2023-04-16T05:14:28;26.20;78.90
57576;DHT22;43412;-33.800;150.804;2023-04-16T05:16:56;25.90;78.40
57576;DHT22;43412;-33.800;150.804;2023-04-16T05:19:23;25.90;79.20
57576;DHT22;43412;-33.800;150.804;2023-04-16T05:21:50;25.80;79.70
57576;DHT22;43412;-33.800;150.804;2023-04-16T05:24:18;25.70;80.20
57576;DHT22;43412;-33.800;150.804;2023-04-16T05:26:45;25.70;80.00
57576;DHT22;43412;-33.800;150.804;2023-04-16T05:29:13;25.60;80.40
57576;DHT22;43412;-33.800;150.804;2023-04-16T05:31:40;25.50;80.10
57576;DHT22;43412;-33.800;150.804;2023-04-16T05:34:07;25.40;79.60
57576;DHT22;43412;-33.800;150.804;2023-04-16T05:36:35;25.30;80.10
57576;DHT22;43412;-33.800;150.804;2023-04-16T05:39:02;25.20;80.80
57576;DHT22;43412;-33.800;150.804;2023-04-16T05:41:30;25.20;81.00
57576;DHT22;43412;-33.800;150.804;2023-04-16T05:43:57;25.10;80.70
57576;DHT22;43412;-33.800;150.804;2023-04-16T05:46:24;25.10;81.60
57576;DHT22;43412;-33.800;150.804;2023-04-16T05:48:51;25.10;80.90
57576;DHT22;43412;-33.800;150.804;2023-04-16T05:51:19;25.00;80.90
57576;DHT22;43412;-33.800;150.804;2023-04-16T05:53:48;25.00;81.20
57576;DHT22;43412;-33.800;150.804;2023-04-16T05:56:15;25.00;81.90
57576;DHT22;43412;-33.800;150.804;2023-04-16T05:58:43;25.00;81.70
57576;DHT22;43412;-33.800;150.804;2023-04-16T06:01:10;25.00;82.10
57576;DHT22;43412;-33.800;150.804;2023-04-16T06:03:38;25.00;82.60
57576;DHT22;43412;-33.800;150.804;2023-04-16T06:06:05;24.90;82.10
57576;DHT22;43412;-33.800;150.804;2023-04-16T06:08:34;24.90;82.00
57576;DHT22;43412;-33.800;150.804;2023-04-16T06:11:02;24.80;81.70
57576;DHT22;43412;-33.800;150.804;2023-04-16T06:13:29;24.70;82.00
57576;DHT22;43412;-33.800;150.804;2023-04-16T06:15:57;24.70;81.90
57576;DHT22;43412;-33.800;150.804;2023-04-16T06:18:25;24.60;81.50
57576;DHT22;43412;-33.800;150.804;2023-04-16T06:20:53;24.60;81.10
57576;DHT22;43412;-33.800;150.804;2023-04-16T06:23:21;24.60;82.50
57576;DHT22;43412;-33.800;150.804;2023-04-16T06:25:48;24.60;82.70
57576;DHT22;43412;-33.800;150.804;2023-04-16T06:28:16;24.60;81.10
57576;DHT22;43412;-33.800;150.804;2023-04-16T06:30:43;24.50;80.50
57576;DHT22;43412;-33.800;150.804;2023-04-16T06:33:10;24.30;79.80
57576;DHT22;43412;-33.800;150.804;2023-04-16T06:35:37;24.10;80.50
57576;DHT22;43412;-33.800;150.804;2023-04-16T06:38:05;23.90;80.90
57576;DHT22;43412;-33.800;150.804;2023-04-16T06:40:32;23.70;81.70
57576;DHT22;43412;-33.800;150.804;2023-04-16T06:43:01;23.60;82.00
57576;DHT22;43412;-33.800;150.804;2023-04-16T06:45:28;23.40;81.70
57576;DHT22;43412;-33.800;150.804;2023-04-16T06:47:56;23.30;82.40
57576;DHT22;43412;-33.800;150.804;2023-04-16T06:50:25;23.20;82.50
57576;DHT22;43412;-33.800;150.804;2023-04-16T06:52:56;23.10;82.10
57576;DHT22;43412;-33.800;150.804;2023-04-16T06:55:24;23.00;83.00
57576;DHT22;43412;-33.800;150.804;2023-04-16T06:57:51;22.90;81.70
57576;DHT22;43412;-33.800;150.804;2023-04-16T07:00:19;22.90;81.20
57576;DHT22;43412;-33.800;150.804;2023-04-16T07:02:46;22.70;81.50
57576;DHT22;43412;-33.800;150.804;2023-04-16T07:05:13;22.60;81.60
57576;DHT22;43412;-33.800;150.804;2023-04-16T07:07:41;22.40;81.70
57576;DHT22;43412;-33.800;150.804;2023-04-16T07:10:10;22.30;81.80
57576;DHT22;43412;-33.800;150.804;2023-04-16T07:12:40;22.20;82.20
57576;DHT22;43412;-33.800;150.804;2023-04-16T07:15:08;22.00;82.60
57576;DHT22;43412;-33.800;150.804;2023-04-16T07:17:35;21.90;83.10
57576;DHT22;43412;-33.800;150.804;2023-04-16T07:20:04;21.70;84.20
57576;DHT22;43412;-33.800;150.804;2023-04-16T07:22:32;21.50;85.20
57576;DHT22;43412;-33.800;150.804;2023-04-16T07:24:59;21.30;85.90
57576;DHT22;43412;-33.800;150.804;2023-04-16T07:27:27;21.20;86.30
57576;DHT22;43412;-33.800;150.804;2023-04-16T07:29:54;21.00;86.50
57576;DHT22;43412;-33.800;150.804;2023-04-16T07:32:22;20.90;87.10
57576;DHT22;43412;-33.800;150.804;2023-04-16T07:34:50;20.70;87.20
57576;DHT22;43412;-33.800;150.804;2023-04-16T07:37:17;20.70;87.00
57576;DHT22;43412;-33.800;150.804;2023-04-16T07:39:44;20.60;86.90
57576;DHT22;43412;-33.800;150.804;2023-04-16T07:42:12;20.50;86.40
57576;DHT22;43412;-33.800;150.804;2023-04-16T07:44:40;20.40;86.70
57576;DHT22;43412;-33.800;150.804;2023-04-16T07:47:07;20.40;86.70
57576;DHT22;43412;-33.800;150.804;2023-04-16T07:49:34;20.20;87.10
57576;DHT22;43412;-33.800;150.804;2023-04-16T07:52:02;20.20;87.10
57576;DHT22;43412;-33.800;150.804;2023-04-16T07:54:29;20.10;87.70
57576;DHT22;43412;-33.800;150.804;2023-04-16T07:56:56;19.90;87.80
57576;DHT22;43412;-33.800;150.804;2023-04-16T07:59:24;19.80;88.10
57576;DHT22;43412;-33.800;150.804;2023-04-16T08:01:54;19.70;88.60
57576;DHT22;43412;-33.800;150.804;2023-04-16T08:04:21;19.60;87.30
57576;DHT22;43412;-33.800;150.804;2023-04-16T08:06:50;19.50;87.40
57576;DHT22;43412;-33.800;150.804;2023-04-16T08:09:19;19.50;87.40
57576;DHT22;43412;-33.800;150.804;2023-04-16T08:11:47;19.40;87.50
57576;DHT22;43412;-33.800;150.804;2023-04-16T08:14:18;19.30;87.60
57576;DHT22;43412;-33.800;150.804;2023-04-16T08:16:45;19.20;87.70
57576;DHT22;43412;-33.800;150.804;2023-04-16T08:19:12;19.20;87.70
57576;DHT22;43412;-33.800;150.804;2023-04-16T08:21:40;19.10;88.40
57576;DHT22;43412;-33.800;150.804;2023-04-16T08:24:07;19.00;88.60
57576;DHT22;43412;-33.800;150.804;2023-04-16T08:26:35;18.90;88.70
57576;DHT22;43412;-33.800;150.804;2023-04-16T08:29:02;18.80;89.00
57576;DHT22;43412;-33.800;150.804;2023-04-16T08:31:29;18.70;89.20
57576;DHT22;43412;-33.800;150.804;2023-04-16T08:33:57;18.80;92.50
57576;DHT22;43412;-33.800;150.804;2023-04-16T08:36:25;18.90;91.00
57576;DHT22;43412;-33.800;150.804;2023-04-16T08:38:53;19.00;90.10
57576;DHT22;43412;-33.800;150.804;2023-04-16T08:41:21;19.00;90.30
57576;DHT22;43412;-33.800;150.804;2023-04-16T08:43:50;19.40;93.20
57576;DHT22;43412;-33.800;150.804;2023-04-16T08:46:23;20.10;90.30
57576;DHT22;43412;-33.800;150.804;2023-04-16T08:48:53;20.50;90.20
57576;DHT22;43412;-33.800;150.804;2023-04-16T08:51:22;20.50;89.10
57576;DHT22;43412;-33.800;150.804;2023-04-16T08:53:56;20.70;88.80
57576;DHT22;43412;-33.800;150.804;2023-04-16T08:56:26;20.80;87.90
57576;DHT22;43412;-33.800;150.804;2023-04-16T08:58:54;20.80;88.60
57576;DHT22;43412;-33.800;150.804;2023-04-16T09:01:22;20.70;86.20
57576;DHT22;43412;-33.800;150.804;2023-04-16T09:03:51;20.50;90.90
57576;DHT22;43412;-33.800;150.804;2023-04-16T09:06:19;20.60;85.60
57576;DHT22;43412;-33.800;150.804;2023-04-16T09:08:47;20.60;87.30
57576;DHT22;43412;-33.800;150.804;2023-04-16T09:11:17;20.50;86.00
57576;DHT22;43412;-33.800;150.804;2023-04-16T09:13:45;20.20;86.10
57576;DHT22;43412;-33.800;150.804;2023-04-16T09:16:13;19.90;86.40
57576;DHT22;43412;-33.800;150.804;2023-04-16T09:18:41;19.60;87.30
57576;DHT22;43412;-33.800;150.804;2023-04-16T09:21:12;19.40;87.90
57576;DHT22;43412;-33.800;150.804;2023-04-16T09:23:40;19.30;88.30
57576;DHT22;43412;-33.800;150.804;2023-04-16T09:26:07;19.10;88.50
57576;DHT22;43412;-33.800;150.804;2023-04-16T09:28:48;18.90;89.10
57576;DHT22;43412;-33.800;150.804;2023-04-16T09:31:18;18.80;89.40
57576;DHT22;43412;-33.800;150.804;2023-04-16T09:34:08;18.70;90.00
57576;DHT22;43412;-33.800;150.804;2023-04-16T09:36:36;18.70;90.10
57576;DHT22;43412;-33.800;150.804;2023-04-16T09:39:03;18.60;90.20
57576;DHT22;43412;-33.800;150.804;2023-04-16T09:41:32;18.40;90.20
57576;DHT22;43412;-33.800;150.804;2023-04-16T09:44:05;18.30;90.30
57576;DHT22;43412;-33.800;150.804;2023-04-16T09:46:39;18.20;90.50
57576;DHT22;43412;-33.800;150.804;2023-04-16T09:49:14;18.10;90.60
57576;DHT22;43412;-33.800;150.804;2023-04-16T09:51:47;18.10;90.80
57576;DHT22;43412;-33.800;150.804;2023-04-16T09:54:16;17.90;90.80
57576;DHT22;43412;-33.800;150.804;2023-04-16T09:56:46;17.80;91.00
57576;DHT22;43412;-33.800;150.804;2023-04-16T09:59:20;17.80;91.10
57576;DHT22;43412;-33.800;150.804;2023-04-16T10:01:48;17.80;91.20
57576;DHT22;43412;-33.800;150.804;2023-04-16T10:04:16;17.70;91.20
57576;DHT22;43412;-33.800;150.804;2023-04-16T10:06:43;17.70;91.40
57576;DHT22;43412;-33.800;150.804;2023-04-16T10:09:13;17.60;91.30
57576;DHT22;43412;-33.800;150.804;2023-04-16T10:11:41;17.60;91.50
57576;DHT22;43412;-33.800;150.804;2023-04-16T10:14:08;17.50;92.30
57576;DHT22;43412;-33.800;150.804;2023-04-16T10:16:36;17.50;91.70
57576;DHT22;43412;-33.800;150.804;2023-04-16T10:19:06;17.50;91.70
57576;DHT22;43412;-33.800;150.804;2023-04-16T10:21:33;17.40;91.90
57576;DHT22;43412;-33.800;150.804;2023-04-16T10:24:01;17.40;91.90
57576;DHT22;43412;-33.800;150.804;2023-04-16T10:26:29;17.40;92.00
57576;DHT22;43412;-33.800;150.804;2023-04-16T10:28:58;17.40;92.10
57576;DHT22;43412;-33.800;150.804;2023-04-16T10:31:26;17.40;92.10
57576;DHT22;43412;-33.800;150.804;2023-04-16T10:33:54;17.40;92.30
57576;DHT22;43412;-33.800;150.804;2023-04-16T10:36:25;17.30;92.30
57576;DHT22;43412;-33.800;150.804;2023-04-16T10:38:57;17.20;92.60
57576;DHT22;43412;-33.800;150.804;2023-04-16T10:41:25;17.20;92.30
57576;DHT22;43412;-33.800;150.804;2023-04-16T10:44:02;17.20;92.60
57576;DHT22;43412;-33.800;150.804;2023-04-16T10:46:40;17.20;92.60
57576;DHT22;43412;-33.800;150.804;2023-04-16T10:49:15;17.10;92.90
57576;DHT22;43412;-33.800;150.804;2023-04-16T10:51:58;17.00;93.40
57576;DHT22;43412;-33.800;150.804;2023-04-16T10:54:27;16.90;93.30
57576;DHT22;43412;-33.800;150.804;2023-04-16T10:57:02;16.80;93.30
57576;DHT22;43412;-33.800;150.804;2023-04-16T10:59:34;16.70;93.80
57576;DHT22;43412;-33.800;150.804;2023-04-16T11:02:13;16.60;94.30
57576;DHT22;43412;-33.800;150.804;2023-04-16T11:04:46;16.40;94.60
57576;DHT22;43412;-33.800;150.804;2023-04-16T11:07:15;16.30;94.70
57576;DHT22;43412;-33.800;150.804;2023-04-16T11:12:21;16.30;94.80
57576;DHT22;43412;-33.800;150.804;2023-04-16T11:17:40;16.10;95.50
57576;DHT22;43412;-33.800;150.804;2023-04-16T11:20:18;16.10;95.80
57576;DHT22;43412;-33.800;150.804;2023-04-16T11:22:49;16.00;95.90
57576;DHT22;43412;-33.800;150.804;2023-04-16T11:25:24;15.90;96.00
57576;DHT22;43412;-33.800;150.804;2023-04-16T11:27:52;15.80;96.10
57576;DHT22;43412;-33.800;150.804;2023-04-16T11:30:40;15.80;96.40
57576;DHT22;43412;-33.800;150.804;2023-04-16T11:33:09;15.80;96.70
57576;DHT22;43412;-33.800;150.804;2023-04-16T11:35:37;15.70;96.60
57576;DHT22;43412;-33.800;150.804;2023-04-16T11:38:05;15.70;96.90
57576;DHT22;43412;-33.800;150.804;2023-04-16T11:40:33;15.60;97.40
57576;DHT22;43412;-33.800;150.804;2023-04-16T11:43:15;15.60;97.50
57576;DHT22;43412;-33.800;150.804;2023-04-16T11:46:04;15.60;97.60
57576;DHT22;43412;-33.800;150.804;2023-04-16T11:48:52;15.50;97.60
57576;DHT22;43412;-33.800;150.804;2023-04-16T11:51:21;15.50;97.60
57576;DHT22;43412;-33.800;150.804;2023-04-16T11:53:50;15.50;97.60
57576;DHT22;43412;-33.800;150.804;2023-04-16T11:56:28;15.50;97.60
57576;DHT22;43412;-33.800;150.804;2023-04-16T12:01:38;15.40;97.80
57576;DHT22;43412;-33.800;150.804;2023-04-16T12:04:06;15.40;97.70
57576;DHT22;43412;-33.800;150.804;2023-04-16T12:06:34;15.40;98.30
57576;DHT22;43412;-33.800;150.804;2023-04-16T12:09:22;15.40;98.50
57576;DHT22;43412;-33.800;150.804;2023-04-16T12:11:50;15.30;98.50
57576;DHT22;43412;-33.800;150.804;2023-04-16T12:14:17;15.20;98.60
57576;DHT22;43412;-33.800;150.804;2023-04-16T12:16:45;15.20;98.80
57576;DHT22;43412;-33.800;150.804;2023-04-16T12:19:12;15.10;99.00
57576;DHT22;43412;-33.800;150.804;2023-04-16T12:21:45;15.10;99.20
57576;DHT22;43412;-33.800;150.804;2023-04-16T12:24:14;15.10;99.40
57576;DHT22;43412;-33.800;150.804;2023-04-16T12:26:51;15.00;99.60
57576;DHT22;43412;-33.800;150.804;2023-04-16T12:29:23;14.90;99.90
57576;DHT22;43412;-33.800;150.804;2023-04-16T12:31:51;14.80;99.90
57576;DHT22;43412;-33.800;150.804;2023-04-16T12:34:20;14.70;99.90
57576;DHT22;43412;-33.800;150.804;2023-04-16T12:36:49;14.70;99.90
57576;DHT22;43412;-33.800;150.804;2023-04-16T12:39:28;14.70;99.90
57576;DHT22;43412;-33.800;150.804;2023-04-16T12:41:56;14.60;99.90
57576;DHT22;43412;-33.800;150.804;2023-04-16T12:44:23;14.70;99.90
57576;DHT22;43412;-33.800;150.804;2023-04-16T12:46:50;14.70;99.90
57576;DHT22;43412;-33.800;150.804;2023-04-16T12:49:18;14.70;99.90
57576;DHT22;43412;-33.800;150.804;2023-04-16T12:51:47;14.70;99.90
57576;DHT22;43412;-33.800;150.804;2023-04-16T12:54:15;14.70;99.90
57576;DHT22;43412;-33.800;150.804;2023-04-16T12:56:42;14.70;99.90
57576;DHT22;43412;-33.800;150.804;2023-04-16T12:59:09;14.60;99.90
57576;DHT22;43412;-33.800;150.804;2023-04-16T13:01:37;14.60;99.90
57576;DHT22;43412;-33.800;150.804;2023-04-16T13:04:04;14.60;99.90
57576;DHT22;43412;-33.800;150.804;2023-04-16T13:06:32;14.60;99.90
57576;DHT22;43412;-33.800;150.804;2023-04-16T13:09:02;14.50;99.90
57576;DHT22;43412;-33.800;150.804;2023-04-16T13:11:30;14.40;99.90
57576;DHT22;43412;-33.800;150.804;2023-04-16T13:13:58;14.40;99.90
57576;DHT22;43412;-33.800;150.804;2023-04-16T13:16:25;14.40;99.90
57576;DHT22;43412;-33.800;150.804;2023-04-16T13:18:52;14.30;99.90
57576;DHT22;43412;-33.800;150.804;2023-04-16T13:21:20;14.30;99.90
57576;DHT22;43412;-33.800;150.804;2023-04-16T13:23:49;14.30;99.90
57576;DHT22;43412;-33.800;150.804;2023-04-16T13:26:17;14.30;99.90
57576;DHT22;43412;-33.800;150.804;2023-04-16T13:28:44;14.30;99.90
57576;DHT22;43412;-33.800;150.804;2023-04-16T13:31:11;14.20;99.90
57576;DHT22;43412;-33.800;150.804;2023-04-16T13:33:39;14.20;99.90
57576;DHT22;43412;-33.800;150.804;2023-04-16T13:36:06;14.20;99.90
57576;DHT22;43412;-33.800;150.804;2023-04-16T13:38:34;14.20;99.90
57576;DHT22;43412;-33.800;150.804;2023-04-16T13:41:01;14.10;99.90
57576;DHT22;43412;-33.800;150.804;2023-04-16T13:43:29;14.10;99.90
57576;DHT22;43412;-33.800;150.804;2023-04-16T13:45:56;14.10;99.90
57576;DHT22;43412;-33.800;150.804;2023-04-16T13:48:23;14.00;99.90
57576;DHT22;43412;-33.800;150.804;2023-04-16T13:50:51;14.00;99.90
57576;DHT22;43412;-33.800;150.804;2023-04-16T13:53:18;14.00;99.90
57576;DHT22;43412;-33.800;150.804;2023-04-16T13:55:45;14.00;99.90
57576;DHT22;43412;-33.800;150.804;2023-04-16T13:58:15;13.90;99.90
57576;DHT22;43412;-33.800;150.804;2023-04-16T14:00:42;13.90;99.90
57576;DHT22;43412;-33.800;150.804;2023-04-16T14:03:10;13.90;99.90
57576;DHT22;43412;-33.800;150.804;2023-04-16T14:05:37;13.80;99.90
57576;DHT22;43412;-33.800;150.804;2023-04-16T14:08:05;13.80;99.90
57576;DHT22;43412;-33.800;150.804;2023-04-16T14:10:32;13.80;99.90
57576;DHT22;43412;-33.800;150.804;2023-04-16T14:13:00;13.70;99.90
57576;DHT22;43412;-33.800;150.804;2023-04-16T14:15:27;13.70;99.90
57576;DHT22;43412;-33.800;150.804;2023-04-16T14:17:55;13.70;99.90
57576;DHT22;43412;-33.800;150.804;2023-04-16T14:20:23;13.70;99.90
57576;DHT22;43412;-33.800;150.804;2023-04-16T14:22:50;13.60;99.90
57576;DHT22;43412;-33.800;150.804;2023-04-16T14:25:17;13.60;99.90
57576;DHT22;43412;-33.800;150.804;2023-04-16T14:27:45;13.50;99.90
57576;DHT22;43412;-33.800;150.804;2023-04-16T14:30:12;13.50;99.90
57576;DHT22;43412;-33.800;150.804;2023-04-16T14:32:40;13.50;99.90
57576;DHT22;43412;-33.800;150.804;2023-04-16T14:35:07;13.50;99.90
57576;DHT22;43412;-33.800;150.804;2023-04-16T14:37:36;13.50;99.90
57576;DHT22;43412;-33.800;150.804;2023-04-16T14:40:05;13.50;99.90
57576;DHT22;43412;-33.800;150.804;2023-04-16T14:42:34;13.50;99.90
57576;DHT22;43412;-33.800;150.804;2023-04-16T14:45:05;13.40;99.90
57576;DHT22;43412;-33.800;150.804;2023-04-16T14:47:33;13.40;99.90
57576;DHT22;43412;-33.800;150.804;2023-04-16T14:50:02;13.40;99.90
57576;DHT22;43412;-33.800;150.804;2023-04-16T14:52:32;13.40;99.90
57576;DHT22;43412;-33.800;150.804;2023-04-16T14:54:59;13.40;99.90
57576;DHT22;43412;-33.800;150.804;2023-04-16T14:57:27;13.40;99.90
57576;DHT22;43412;-33.800;150.804;2023-04-16T14:59:54;13.40;99.90
57576;DHT22;43412;-33.800;150.804;2023-04-16T15:02:22;13.30;99.90
57576;DHT22;43412;-33.800;150.804;2023-04-16T15:04:49;13.30;99.90